createdAt,value
2023-01-27T00:00:36.307Z,4.47
2023-01-27T00:03:03.077Z,3.45
2023-01-27T00:05:29.758Z,3.88
2023-01-27T00:07:58.695Z,4.93
2023-01-27T00:10:26.167Z,3.35
2023-01-27T00:13:11.837Z,3.13
2023-01-27T00:15:38.760Z,2.88
2023-01-27T00:18:05.965Z,2.90
2023-01-27T00:20:51.798Z,3.00
2023-01-27T00:23:39.815Z,2.40
2023-01-27T00:26:10.268Z,2.45
2023-01-27T00:28:39.140Z,2.40
2023-01-27T00:31:09.758Z,3.60
2023-01-27T00:33:36.447Z,2.80
2023-01-27T00:36:06.293Z,2.90
2023-01-27T00:38:35.120Z,2.88
2023-01-27T00:41:20.268Z,2.75
2023-01-27T00:43:48.931Z,2.65
2023-01-27T00:46:17.477Z,2.33
2023-01-27T00:48:44.609Z,2.83
2023-01-27T00:51:12.039Z,2.63
2023-01-27T00:53:38.816Z,2.60
2023-01-27T00:56:06.197Z,2.75
2023-01-27T00:58:32.991Z,2.58
2023-01-27T01:01:01.821Z,2.33
2023-01-27T01:03:32.990Z,2.67
2023-01-27T01:06:05.633Z,2.22
2023-01-27T01:08:33.742Z,2.47
2023-01-27T01:11:00.572Z,2.92
2023-01-27T01:13:28.450Z,2.58
2023-01-27T01:15:56.164Z,3.15
2023-01-27T01:18:24.412Z,2.67
2023-01-27T01:20:51.018Z,2.28
2023-01-27T01:23:18.126Z,2.42
2023-01-27T01:25:53.270Z,3.03
2023-01-27T01:28:19.959Z,4.15
2023-01-27T01:30:46.654Z,3.03
2023-01-27T01:33:13.822Z,2.85
2023-01-27T01:35:40.507Z,3.25
2023-01-27T01:38:07.209Z,2.70
2023-01-27T01:40:33.950Z,2.13
2023-01-27T01:43:03.984Z,3.10
2023-01-27T01:45:36.864Z,3.83
2023-01-27T01:48:11.859Z,2.78
2023-01-27T01:50:42.754Z,3.30
2023-01-27T01:53:10.532Z,3.55
2023-01-27T01:55:39.578Z,3.10
2023-01-27T01:58:08.319Z,3.10
2023-01-27T02:00:35.055Z,2.65
2023-01-27T02:03:03.676Z,3.13
2023-01-27T02:05:34.762Z,3.33
2023-01-27T02:08:09.620Z,3.97
2023-01-27T02:10:36.382Z,3.90
2023-01-27T02:13:03.208Z,3.60
2023-01-27T02:15:33.070Z,4.10
2023-01-27T02:18:01.481Z,5.80
2023-01-27T02:20:31.602Z,3.70
2023-01-27T02:23:17.017Z,4.45
2023-01-27T02:25:59.046Z,4.65
2023-01-27T02:28:30.750Z,4.65
2023-01-27T02:30:58.235Z,5.30
2023-01-27T02:33:25.820Z,5.45
2023-01-27T02:36:10.823Z,4.50
2023-01-27T02:38:42.932Z,4.57
2023-01-27T02:41:12.019Z,4.38
2023-01-27T02:43:38.617Z,4.28
2023-01-27T02:46:05.314Z,3.20
2023-01-27T02:48:31.964Z,4.30
2023-01-27T02:50:58.938Z,3.25
2023-01-27T02:53:25.724Z,4.07
2023-01-27T02:55:52.401Z,3.65
2023-01-27T02:58:19.044Z,3.90
2023-01-27T03:00:45.795Z,3.40
2023-01-27T03:03:12.430Z,3.53
2023-01-27T03:05:39.188Z,4.40
2023-01-27T03:08:05.839Z,3.95
2023-01-27T03:10:32.492Z,4.35
2023-01-27T03:12:59.140Z,4.07
2023-01-27T03:15:44.035Z,4.15
2023-01-27T03:18:16.347Z,4.97
2023-01-27T03:20:46.537Z,4.60
2023-01-27T03:23:14.896Z,3.92
2023-01-27T03:25:43.738Z,4.13
2023-01-27T03:28:11.017Z,4.38
2023-01-27T03:30:38.345Z,4.18
2023-01-27T03:33:06.487Z,4.55
2023-01-27T03:35:48.359Z,4.93
2023-01-27T03:38:35.406Z,4.95
2023-01-27T03:41:23.444Z,4.28
2023-01-27T03:44:08.937Z,4.60
2023-01-27T03:46:35.608Z,4.07
2023-01-27T03:49:02.220Z,4.93
2023-01-27T03:51:28.925Z,4.57
2023-01-27T03:53:55.609Z,4.97
2023-01-27T03:56:23.010Z,4.22
2023-01-27T03:58:50.654Z,5.35
2023-01-27T04:01:20.336Z,4.28
2023-01-27T04:04:06.201Z,5.95
2023-01-27T04:07:14.073Z,5.57
2023-01-27T04:09:40.710Z,4.82
2023-01-27T04:12:07.503Z,5.60
2023-01-27T04:14:43.952Z,5.03
2023-01-27T04:17:14.036Z,5.93
2023-01-27T04:19:41.395Z,5.10
2023-01-27T04:22:10.159Z,7.20
2023-01-27T04:24:36.790Z,5.18
2023-01-27T04:27:06.360Z,5.50
2023-01-27T04:29:36.026Z,4.72
2023-01-27T04:32:06.058Z,4.70
2023-01-27T04:34:32.976Z,5.30
2023-01-27T04:36:59.963Z,5.25
2023-01-27T04:39:26.944Z,4.75
2023-01-27T04:41:53.666Z,5.68
2023-01-27T04:44:20.424Z,4.82
2023-01-27T04:46:47.712Z,4.53
2023-01-27T04:49:14.709Z,4.65
2023-01-27T04:51:41.415Z,4.15
2023-01-27T04:54:08.138Z,4.13
2023-01-27T04:56:37.198Z,4.80
2023-01-27T04:59:15.173Z,4.68
2023-01-27T05:01:45.440Z,4.00
2023-01-27T05:04:12.665Z,4.32
2023-01-27T05:06:40.822Z,5.03
2023-01-27T05:09:09.390Z,4.10
2023-01-27T05:11:38.759Z,4.07
2023-01-27T05:14:07.573Z,3.92
2023-01-27T05:16:34.665Z,3.72
2023-01-27T05:19:02.213Z,5.15
2023-01-27T05:21:28.907Z,3.55
2023-01-27T05:23:55.614Z,3.47
2023-01-27T05:26:27.776Z,3.63
2023-01-27T05:28:57.728Z,4.13
2023-01-27T05:31:27.630Z,4.90
2023-01-27T05:33:55.676Z,4.10
2023-01-27T05:36:24.485Z,5.35
2023-01-27T05:38:51.322Z,4.38
2023-01-27T05:41:19.803Z,3.92
2023-01-27T05:43:51.383Z,4.03
2023-01-27T05:46:26.678Z,4.35
2023-01-27T05:48:55.784Z,3.95
2023-01-27T05:51:24.269Z,4.40
2023-01-27T05:53:51.374Z,4.10
2023-01-27T05:56:19.048Z,3.63
2023-01-27T05:58:46.091Z,4.00
2023-01-27T06:01:21.098Z,4.28
2023-01-27T06:03:48.495Z,4.20
2023-01-27T06:06:18.160Z,4.30
2023-01-27T06:08:47.700Z,3.83
2023-01-27T06:11:15.447Z,4.05
2023-01-27T06:13:42.938Z,3.72
2023-01-27T06:16:12.409Z,4.88
2023-01-27T06:21:10.303Z,4.18
2023-01-27T06:23:37.337Z,5.28
2023-01-27T06:26:07.508Z,4.47
2023-01-27T06:28:34.168Z,4.13
2023-01-27T06:31:19.567Z,4.88
2023-01-27T06:33:46.452Z,4.03
2023-01-27T06:36:15.581Z,4.45
2023-01-27T06:38:42.862Z,4.75
2023-01-27T06:41:09.544Z,5.45
2023-01-27T06:43:36.380Z,3.30
2023-01-27T06:46:05.748Z,4.30
2023-01-27T06:48:33.381Z,5.18
2023-01-27T06:51:00.576Z,5.22
2023-01-27T06:53:27.297Z,5.05
2023-01-27T06:55:58.937Z,4.85
2023-01-27T06:58:25.719Z,5.00
2023-01-27T07:00:52.608Z,4.60
2023-01-27T07:03:19.279Z,5.05
2023-01-27T07:05:45.984Z,4.95
2023-01-27T07:08:12.617Z,5.32
2023-01-27T07:10:39.543Z,4.82
2023-01-27T07:13:14.170Z,4.90
2023-01-27T07:15:41.278Z,4.93
2023-01-27T07:18:09.410Z,5.00
2023-01-27T07:20:36.078Z,5.32
2023-01-27T07:23:05.397Z,4.80
2023-01-27T07:25:34.494Z,4.03
2023-01-27T07:28:02.413Z,4.50
2023-01-27T07:30:33.952Z,4.50
2023-01-27T07:33:09.505Z,4.35
2023-01-27T07:35:37.258Z,4.70
2023-01-27T07:38:05.149Z,5.18
2023-01-27T07:40:31.957Z,3.88
2023-01-27T07:42:59.725Z,4.25
2023-01-27T07:45:27.297Z,4.57
2023-01-27T07:47:54.084Z,4.20
2023-01-27T07:50:21.729Z,3.80
2023-01-27T07:52:48.352Z,3.40
2023-01-27T07:55:15.251Z,4.03
2023-01-27T07:57:42.265Z,3.53
2023-01-27T08:00:09.619Z,4.05
2023-01-27T08:02:36.297Z,3.95
2023-01-27T08:05:03.065Z,3.88
2023-01-27T08:07:32.229Z,4.10
2023-01-27T08:09:58.956Z,4.53
2023-01-27T08:12:25.541Z,3.72
2023-01-27T08:14:52.170Z,3.47
2023-01-27T08:17:18.825Z,3.53
2023-01-27T08:19:45.474Z,4.60
2023-01-27T08:22:12.130Z,3.70
2023-01-27T08:24:38.740Z,3.90
2023-01-27T08:27:08.117Z,3.63
2023-01-27T08:29:34.947Z,3.85
2023-01-27T08:32:01.560Z,3.22
2023-01-27T08:34:28.198Z,3.30
2023-01-27T08:36:54.959Z,3.33
2023-01-27T08:39:21.874Z,3.88
2023-01-27T08:41:48.545Z,3.72
2023-01-27T08:44:15.218Z,33.40
2023-01-27T08:46:41.999Z,4.78
2023-01-27T08:49:08.911Z,10.30
2023-01-27T08:51:35.853Z,6.22
2023-01-27T08:54:02.683Z,5.45
2023-01-27T08:56:30.798Z,4.13
2023-01-27T08:58:57.622Z,3.97
2023-01-27T09:01:24.503Z,4.32
2023-01-27T09:03:51.300Z,6.82
2023-01-27T09:06:18.679Z,3.72
2023-01-27T09:09:05.942Z,3.67
2023-01-27T09:11:32.650Z,3.42
2023-01-27T09:13:59.301Z,3.60
2023-01-27T09:16:26.931Z,3.60
2023-01-27T09:18:53.598Z,5.30
2023-01-27T09:21:20.395Z,4.60
2023-01-27T09:23:49.614Z,3.28
2023-01-27T09:26:16.336Z,3.10
2023-01-27T09:28:43.117Z,3.70
2023-01-27T09:31:10.029Z,4.13
2023-01-27T09:33:38.731Z,4.00
2023-01-27T09:36:14.788Z,4.53
2023-01-27T09:39:08.384Z,3.63
2023-01-27T09:41:40.906Z,3.65
2023-01-27T09:44:16.126Z,3.00
2023-01-27T09:47:10.718Z,3.72
2023-01-27T09:50:07.945Z,3.88
2023-01-27T09:53:05.281Z,4.43
2023-01-27T09:55:58.365Z,3.75
2023-01-27T09:59:07.597Z,3.97
2023-01-27T10:01:56.278Z,3.65
2023-01-27T10:05:04.309Z,2.85
2023-01-27T10:07:48.742Z,4.10
2023-01-27T10:10:29.660Z,2.67
2023-01-27T10:13:03.843Z,3.95
2023-01-27T10:16:05.691Z,2.55
2023-01-27T10:18:53.323Z,2.35
2023-01-27T10:21:43.388Z,2.72
2023-01-27T10:24:19.303Z,2.97
2023-01-27T10:26:59.675Z,2.50
2023-01-27T10:29:32.772Z,2.70
2023-01-27T10:32:09.672Z,3.08
2023-01-27T10:34:42.319Z,2.30
2023-01-27T10:37:30.665Z,2.88
2023-01-27T10:40:08.783Z,3.15
2023-01-27T10:42:59.164Z,3.50
2023-01-27T10:45:37.717Z,3.08
2023-01-27T10:48:49.532Z,2.90
2023-01-27T10:51:26.462Z,2.92
2023-01-27T10:53:58.612Z,3.30
2023-01-27T10:56:53.480Z,2.80
2023-01-27T10:59:55.289Z,2.58
2023-01-27T11:02:56.821Z,1.98
2023-01-27T11:05:53.838Z,2.67
2023-01-27T11:08:24.326Z,2.72
2023-01-27T11:11:15.382Z,2.88
2023-01-27T11:13:42.752Z,2.90
2023-01-27T11:16:16.546Z,3.33
2023-01-27T11:18:46.160Z,3.22
2023-01-27T11:21:21.460Z,3.70
2023-01-27T11:23:53.583Z,4.00
2023-01-27T11:26:37.215Z,3.70
2023-01-27T11:29:09.581Z,3.15
2023-01-27T11:31:53.834Z,3.03
2023-01-27T11:34:28.168Z,3.22
2023-01-27T11:36:54.914Z,3.05
2023-01-27T11:39:21.812Z,3.15
2023-01-27T11:41:54.244Z,3.38
2023-01-27T11:44:24.330Z,3.40
2023-01-27T11:46:52.438Z,4.03
2023-01-27T11:49:32.081Z,3.72
2023-01-27T11:52:05.869Z,3.42
2023-01-27T11:54:48.563Z,3.50
2023-01-27T11:57:22.272Z,3.42
2023-01-27T11:59:55.409Z,3.33
2023-01-27T12:02:36.365Z,3.90
2023-01-27T12:05:14.670Z,4.15
2023-01-27T12:08:00.219Z,2.75
2023-01-27T12:10:33.012Z,3.17
2023-01-27T12:13:20.694Z,3.42
2023-01-27T12:16:00.688Z,3.15
2023-01-27T12:18:31.770Z,3.50
2023-01-27T12:21:04.054Z,3.15
2023-01-27T12:23:40.710Z,3.42
2023-01-27T12:26:10.330Z,3.45
2023-01-27T12:28:42.031Z,3.20
2023-01-27T12:31:12.198Z,2.83
2023-01-27T12:33:44.496Z,2.85
2023-01-27T12:36:17.576Z,3.28
2023-01-27T12:38:56.448Z,2.28
2023-01-27T12:41:27.220Z,2.60
2023-01-27T12:43:57.172Z,2.80
2023-01-27T12:46:26.480Z,2.67
2023-01-27T12:49:02.721Z,2.92
2023-01-27T12:51:55.621Z,2.60
2023-01-27T12:54:24.880Z,2.75
2023-01-27T12:56:53.365Z,2.42
2023-01-27T12:59:23.647Z,2.83
2023-01-27T13:02:25.200Z,2.75
2023-01-27T13:04:54.822Z,2.08
2023-01-27T13:07:31.063Z,1.90
2023-01-27T13:10:19.208Z,2.35
2023-01-27T13:12:54.937Z,2.22
2023-01-27T13:15:24.217Z,2.05
2023-01-27T13:20:45.056Z,2.30
2023-01-27T13:23:20.545Z,2.10
2023-01-27T13:26:09.574Z,1.95
2023-01-27T13:28:53.123Z,1.90
2023-01-27T13:31:29.244Z,1.98
2023-01-27T13:34:20.588Z,2.05
2023-01-27T13:37:16.265Z,1.70
2023-01-27T13:39:58.049Z,2.17
2023-01-27T13:42:38.620Z,1.55
2023-01-27T13:45:22.623Z,1.50
2023-01-27T13:48:10.281Z,2.10
2023-01-27T13:50:44.673Z,1.40
2023-01-27T13:53:18.840Z,1.05
2023-01-27T13:56:03.281Z,1.50
2023-01-27T13:58:35.724Z,1.73
2023-01-27T14:01:32.340Z,1.90
2023-01-27T14:04:09.872Z,1.45
2023-01-27T14:07:11.418Z,1.30
2023-01-27T14:09:59.227Z,1.20
2023-01-27T14:12:47.535Z,1.35
2023-01-27T14:15:36.227Z,2.90
2023-01-27T14:18:21.216Z,0.90
2023-01-27T14:21:14.292Z,1.52
2023-01-27T14:24:10.821Z,0.70
2023-01-27T14:26:40.410Z,0.60
2023-01-27T14:29:41.099Z,0.88
2023-01-27T14:32:13.424Z,0.82
2023-01-27T14:34:46.084Z,0.85
2023-01-27T14:37:23.090Z,1.20
2023-01-27T14:39:57.755Z,0.90
2023-01-27T14:42:27.519Z,0.95
2023-01-27T14:45:32.308Z,1.85
2023-01-27T14:48:05.061Z,1.00
2023-01-27T14:50:32.739Z,1.20
2023-01-27T14:53:02.856Z,1.10
2023-01-27T14:56:04.702Z,1.48
2023-01-27T14:59:09.650Z,2.08
2023-01-27T15:01:45.028Z,1.70
2023-01-27T15:04:14.795Z,1.40
2023-01-27T15:06:55.103Z,0.98
2023-01-27T15:09:38.726Z,1.33
2023-01-27T15:12:14.936Z,1.35
2023-01-27T15:15:03.289Z,1.48
2023-01-27T15:17:48.755Z,1.67
2023-01-27T15:20:36.161Z,2.20
2023-01-27T15:23:09.026Z,1.38
2023-01-27T15:25:40.309Z,1.30
2023-01-27T15:28:13.353Z,1.20
2023-01-27T15:30:41.030Z,1.73
2023-01-27T15:33:45.356Z,1.52
2023-01-27T15:36:27.035Z,1.38
2023-01-27T15:39:09.520Z,2.97
2023-01-27T15:41:54.906Z,1.70
2023-01-27T15:44:24.562Z,1.98
2023-01-27T15:46:53.721Z,1.80
2023-01-27T15:49:28.099Z,1.83
2023-01-27T15:52:07.917Z,2.50
2023-01-27T15:54:35.848Z,2.38
2023-01-27T15:57:06.688Z,3.03
2023-01-27T15:59:58.332Z,2.30
2023-01-27T16:02:33.164Z,2.92
2023-01-27T16:05:08.521Z,5.00
2023-01-27T16:07:37.827Z,5.03
2023-01-27T16:10:08.485Z,4.22
2023-01-27T16:12:43.227Z,5.03
2023-01-27T16:15:22.398Z,5.65
2023-01-27T16:18:15.336Z,5.22
2023-01-27T16:20:41.917Z,3.92
2023-01-27T16:23:15.724Z,5.15
2023-01-27T16:25:50.340Z,3.75
2023-01-27T16:28:31.075Z,3.15
2023-01-27T16:31:00.697Z,2.97
2023-01-27T16:33:37.048Z,3.95
2023-01-27T16:36:23.987Z,3.42
2023-01-27T16:38:51.909Z,3.75
2023-01-27T16:41:28.455Z,3.03
2023-01-27T16:44:05.400Z,3.63
2023-01-27T16:46:50.534Z,2.75
2023-01-27T16:49:24.788Z,3.83
2023-01-27T16:52:00.972Z,4.40
2023-01-27T16:54:42.787Z,4.55
2023-01-27T16:57:39.540Z,3.75
2023-01-27T17:00:18.022Z,2.88
2023-01-27T17:02:46.694Z,2.92
2023-01-27T17:05:17.071Z,4.03
2023-01-27T17:08:14.561Z,4.78
2023-01-27T17:10:56.545Z,4.78
2023-01-27T17:13:31.597Z,3.30
2023-01-27T17:15:59.476Z,4.38
2023-01-27T17:18:26.231Z,4.40
2023-01-27T17:20:53.234Z,5.47
2023-01-27T17:23:22.723Z,7.10
2023-01-27T17:25:50.253Z,8.95
2023-01-27T17:28:22.026Z,7.97
2023-01-27T17:30:50.657Z,6.38
2023-01-27T17:33:20.337Z,5.43
2023-01-27T17:36:00.652Z,7.40
2023-01-27T17:38:43.258Z,6.85
2023-01-27T17:41:32.646Z,6.35
2023-01-27T17:44:01.584Z,6.80
2023-01-27T17:46:33.899Z,5.40
2023-01-27T17:51:46.864Z,8.95
2023-01-27T17:57:06.978Z,6.53
2023-01-27T17:59:36.977Z,6.75
2023-01-27T18:02:11.817Z,7.68
2023-01-27T18:04:41.993Z,5.75
2023-01-27T18:07:11.476Z,4.85
2023-01-27T18:09:52.452Z,7.25
2023-01-27T18:12:29.560Z,7.80
2023-01-27T18:14:56.241Z,9.18
2023-01-27T18:17:25.890Z,10.05
2023-01-27T18:19:54.620Z,9.48
2023-01-27T18:22:22.411Z,9.23
2023-01-27T18:24:53.382Z,7.25
2023-01-27T18:27:39.731Z,7.07
2023-01-27T18:30:13.084Z,7.30
2023-01-27T18:32:42.088Z,7.90
2023-01-27T18:35:27.125Z,8.50
2023-01-27T18:38:05.152Z,9.55
2023-01-27T18:40:37.070Z,8.50
2023-01-27T18:43:05.395Z,10.07
2023-01-27T18:45:32.330Z,11.07
2023-01-27T18:47:59.663Z,10.55
2023-01-27T18:50:27.856Z,11.82
2023-01-27T18:52:55.303Z,14.80
2023-01-27T18:55:28.783Z,12.40
2023-01-27T18:58:00.150Z,11.60
2023-01-27T19:00:35.955Z,10.50
2023-01-27T19:03:03.697Z,9.13
2023-01-27T19:05:33.325Z,8.55
2023-01-27T19:08:00.539Z,11.25
2023-01-27T19:10:30.382Z,11.38
2023-01-27T19:12:58.957Z,11.70
2023-01-27T19:15:39.845Z,10.40
2023-01-27T19:18:19.919Z,12.32
2023-01-27T19:20:46.613Z,11.57
2023-01-27T19:23:15.846Z,12.05
2023-01-27T19:25:43.852Z,15.35
2023-01-27T19:28:20.449Z,12.07
2023-01-27T19:30:47.358Z,13.02
2023-01-27T19:33:22.677Z,15.18
2023-01-27T19:35:53.408Z,17.52
2023-01-27T19:38:20.349Z,15.35
2023-01-27T19:45:05.098Z,11.20
2023-01-27T19:47:31.708Z,10.23
2023-01-27T19:49:58.312Z,11.43
2023-01-27T20:00:54.434Z,14.70
2023-01-27T20:03:41.427Z,17.33
2023-01-27T20:06:31.186Z,16.27
2023-01-27T20:10:11.041Z,17.20
2023-01-27T20:12:38.714Z,16.42
2023-01-27T20:15:05.752Z,17.75
2023-01-27T20:17:32.408Z,15.63
2023-01-27T20:19:59.003Z,16.52
2023-01-27T20:22:26.421Z,16.00
2023-01-27T20:24:53.113Z,17.55
2023-01-27T20:34:53.161Z,13.95
2023-01-27T20:37:21.481Z,13.77
2023-01-27T20:39:48.112Z,17.60
2023-01-27T20:42:14.788Z,16.08
2023-01-27T20:44:41.413Z,15.63
2023-01-27T20:47:08.085Z,17.73
2023-01-27T20:49:35.647Z,20.23
2023-01-27T20:52:02.282Z,22.92
2023-01-27T20:54:30.694Z,23.83
2023-01-27T20:57:02.788Z,24.33
2023-01-27T20:59:29.561Z,22.42
2023-01-27T21:02:31.461Z,21.00
2023-01-27T21:04:58.238Z,23.13
2023-01-27T21:07:25.224Z,19.42
2023-01-27T21:09:53.572Z,18.25
2023-01-27T21:12:21.854Z,16.33
2023-01-27T21:14:48.591Z,16.20
2023-01-27T21:17:15.361Z,16.40
2023-01-27T21:19:42.057Z,15.60
2023-01-27T21:22:08.690Z,15.45
2023-01-27T21:24:35.724Z,14.63
2023-01-27T21:27:02.746Z,15.38
2023-01-27T21:29:32.050Z,15.55
2023-01-27T21:31:58.900Z,15.35
2023-01-27T21:34:27.221Z,16.58
2023-01-27T21:36:57.062Z,12.82
2023-01-27T21:39:23.960Z,10.13
2023-01-27T21:41:53.107Z,10.48
2023-01-27T21:44:48.383Z,11.43
2023-01-27T21:47:19.520Z,11.88
2023-01-27T21:50:04.368Z,11.85
2023-01-27T21:52:39.100Z,10.52
2023-01-27T21:55:08.767Z,10.60
2023-01-27T21:57:35.815Z,9.35
2023-01-27T22:00:05.270Z,11.38
2023-01-27T22:02:32.514Z,11.90
2023-01-27T22:04:59.258Z,10.27
2023-01-27T22:07:27.065Z,10.73
2023-01-27T22:09:53.735Z,11.45
2023-01-27T22:12:21.943Z,11.27
2023-01-27T22:14:48.515Z,11.23
2023-01-27T22:17:15.869Z,11.23
2023-01-27T22:19:42.486Z,10.70
2023-01-27T22:22:12.359Z,14.88
2023-01-27T22:24:39.044Z,12.13
2023-01-27T22:27:05.727Z,11.75
2023-01-27T22:29:32.379Z,12.60
2023-01-27T22:31:59.083Z,13.98
2023-01-27T22:34:25.757Z,12.98
2023-01-27T22:36:52.513Z,13.43
2023-01-27T22:39:19.541Z,12.30
2023-01-27T22:41:46.516Z,15.00
2023-01-27T22:44:14.488Z,16.45
2023-01-27T22:46:42.705Z,12.27
2023-01-27T22:49:10.321Z,13.18
2023-01-27T22:51:37.726Z,12.55
2023-01-27T22:54:04.626Z,10.48
2023-01-27T22:56:31.297Z,11.68
2023-01-27T22:58:57.977Z,11.25
2023-01-27T23:01:24.666Z,11.00
2023-01-27T23:03:51.353Z,10.40
2023-01-27T23:06:18.011Z,9.35
2023-01-27T23:08:46.579Z,9.63
2023-01-27T23:11:13.424Z,8.80
2023-01-27T23:13:40.167Z,9.00
2023-01-27T23:16:07.140Z,8.80
2023-01-27T23:18:33.842Z,8.70
2023-01-27T23:21:07.893Z,8.82
2023-01-27T23:23:35.904Z,8.95
2023-01-27T23:26:06.954Z,7.07
2023-01-27T23:28:34.165Z,7.97
2023-01-27T23:31:01.011Z,7.45
2023-01-27T23:33:30.148Z,7.43
2023-01-27T23:35:57.802Z,7.40
2023-01-27T23:38:32.573Z,7.43
2023-01-27T23:41:05.388Z,7.00
2023-01-27T23:43:32.220Z,6.45
2023-01-27T23:45:59.405Z,7.20
2023-01-27T23:48:26.592Z,7.18
2023-01-27T23:50:53.463Z,6.15
2023-01-27T23:53:20.522Z,7.20
2023-01-27T23:55:59.846Z,6.32
2023-01-27T23:58:27.325Z,6.20
